Flugplatz Niederstetten Army Air Base

Bericht für ETHN

vom 19.04. um 11:40 UTC

Wind 18 kt aus 240°

Sichtweite 9700 m

schwacher Regen

schwacher Schnee

aufgebrochene Bewölkung in 500 ft

bedeckt in 1200 ft

Temperatur 2°C

Taupunkt 2°C

Luftfeuchtigkeit 100%

Luftdruck 1009 hPa

ETHN 191140Z 24018KT 9999 -RASN BKN005 OVC012 02/02 Q1009 YLO

Prognose für ETHN

vom 19.04. um 07:00 UTC

Zwischen 08:00 UTC und 17:00 UTC

Wind 15 kt aus 240° in Böen 25 kt

Sichtweite 9700 m

schwacher Regen

aufgebrochene Bewölkung in 1500 ft

bedeckt in 4000 ft


Zwischen 08:00 UTC und 17:00 UTC zeitweise

Wind 20 kt aus 250° in Böen 35 kt

Sichtweite 6000 m

Regen

Sprühregen

aufgebrochene Bewölkung in 700 ft

bedeckt in 2000 ft

TAF ETHN 190700Z 1908/1917 24015G25KT 9999 -RA BKN015 OVC040 TEMPO 1908/1917 25020G35KT 6000 RADZ BKN007 OVC020
Impressum